createdAt,value
2022-10-12T00:00:46.214Z,16.17
2022-10-12T00:03:14.121Z,16.20
2022-10-12T00:05:41.972Z,15.93
2022-10-12T00:08:10.012Z,16.37
2022-10-12T00:10:41.357Z,16.73
2022-10-12T00:13:11.743Z,16.70
2022-10-12T00:15:40.224Z,16.60
2022-10-12T00:18:09.025Z,16.77
2022-10-12T00:20:37.003Z,16.87
2022-10-12T00:23:05.055Z,17.30
2022-10-12T00:25:32.959Z,16.10
2022-10-12T00:28:00.865Z,16.57
2022-10-12T00:30:30.584Z,17.10
2022-10-12T00:32:58.684Z,16.93
2022-10-12T00:35:28.987Z,17.63
2022-10-12T00:37:57.823Z,17.83
2022-10-12T00:40:25.703Z,17.03
2022-10-12T00:42:53.595Z,16.93
2022-10-12T00:45:21.576Z,17.37
2022-10-12T00:47:53.341Z,17.23
2022-10-12T00:50:25.934Z,15.80
2022-10-12T00:52:58.476Z,16.23
2022-10-12T00:55:29.993Z,16.13
2022-10-12T00:57:58.311Z,16.33
2022-10-12T01:00:26.420Z,16.33
2022-10-12T01:02:55.883Z,16.70
2022-10-12T01:05:24.765Z,16.33
2022-10-12T01:07:52.653Z,16.93
2022-10-12T01:10:20.719Z,17.00
2022-10-12T01:12:50.667Z,17.30
2022-10-12T01:15:18.713Z,17.00
2022-10-12T01:17:55.082Z,15.90
2022-10-12T01:20:52.228Z,17.30
2022-10-12T01:23:52.583Z,16.43
2022-10-12T01:26:55.726Z,17.40
2022-10-12T01:29:39.115Z,16.73
2022-10-12T01:32:14.807Z,15.80
2022-10-12T01:34:49.307Z,15.90
2022-10-12T01:37:22.631Z,16.13
2022-10-12T01:39:54.383Z,16.43
2022-10-12T01:42:28.019Z,15.77
2022-10-12T01:45:03.381Z,16.30
2022-10-12T01:47:33.602Z,15.20
2022-10-12T01:50:03.003Z,15.70
2022-10-12T01:52:33.920Z,15.07
2022-10-12T01:55:18.712Z,15.90
2022-10-12T01:57:59.864Z,15.50
2022-10-12T02:00:27.792Z,15.40
2022-10-12T02:03:06.599Z,14.97
2022-10-12T02:05:39.291Z,16.73
2022-10-12T02:08:14.683Z,15.60
2022-10-12T02:10:48.981Z,15.53
2022-10-12T02:13:21.287Z,14.90
2022-10-12T02:15:50.035Z,15.63
2022-10-12T02:18:22.603Z,14.27
2022-10-12T02:20:54.714Z,15.40
2022-10-12T02:23:25.463Z,15.77
2022-10-12T02:25:54.824Z,16.17
2022-10-12T02:28:25.333Z,15.80
2022-10-12T02:30:58.726Z,17.60
2022-10-12T02:33:33.606Z,15.00
2022-10-12T02:36:06.497Z,16.27
2022-10-12T02:38:37.690Z,15.90
2022-10-12T02:41:10.620Z,16.13
2022-10-12T02:43:43.855Z,15.97
2022-10-12T02:46:12.755Z,15.67
2022-10-12T02:48:43.355Z,14.93
2022-10-12T02:51:12.512Z,16.30
2022-10-12T02:53:41.380Z,15.17
2022-10-12T02:56:13.720Z,15.70
2022-10-12T02:58:44.704Z,15.43
2022-10-12T03:01:13.875Z,15.43
2022-10-12T03:03:43.361Z,15.73
2022-10-12T03:06:11.377Z,17.60
2022-10-12T03:08:39.731Z,15.70
2022-10-12T03:11:09.361Z,17.00
2022-10-12T03:13:37.251Z,16.47
2022-10-12T03:16:05.745Z,17.40
2022-10-12T03:18:34.440Z,15.50
2022-10-12T03:21:04.466Z,16.93
2022-10-12T03:23:32.293Z,14.33
2022-10-12T03:26:00.173Z,13.87
2022-10-12T03:28:28.227Z,14.57
2022-10-12T03:30:56.179Z,13.80
2022-10-12T03:33:24.110Z,13.93
2022-10-12T03:35:52.271Z,15.10
2022-10-12T03:38:21.743Z,13.53
2022-10-12T03:40:49.657Z,14.60
2022-10-12T03:43:18.278Z,14.97
2022-10-12T03:45:46.150Z,14.03
2022-10-12T03:48:14.070Z,16.97
2022-10-12T03:50:41.950Z,15.97
2022-10-12T03:53:09.900Z,16.63
2022-10-12T03:55:39.196Z,17.67
2022-10-12T03:58:07.143Z,16.77
2022-10-12T04:00:35.086Z,17.33
2022-10-12T04:03:03.223Z,17.10
2022-10-12T04:05:31.722Z,22.20
2022-10-12T04:08:00.105Z,21.63
2022-10-12T04:10:28.221Z,22.07
2022-10-12T04:12:57.812Z,21.67
2022-10-12T04:15:25.694Z,21.27
2022-10-12T04:17:54.247Z,23.50
2022-10-12T04:20:22.177Z,21.37
2022-10-12T04:22:50.084Z,21.50
2022-10-12T04:25:18.006Z,22.50
2022-10-12T04:27:45.957Z,21.87
2022-10-12T04:30:15.502Z,22.03
2022-10-12T04:32:43.395Z,21.40
2022-10-12T04:35:11.466Z,22.27
2022-10-12T04:37:39.607Z,21.00
2022-10-12T04:40:08.990Z,23.17
2022-10-12T04:42:36.869Z,22.93
2022-10-12T04:45:05.398Z,25.33
2022-10-12T04:47:36.571Z,23.30
2022-10-12T04:50:05.742Z,23.50
2022-10-12T04:52:33.973Z,23.57
2022-10-12T04:55:01.876Z,25.10
2022-10-12T04:57:30.514Z,26.73
2022-10-12T04:59:58.482Z,24.43
2022-10-12T05:02:26.517Z,24.57
2022-10-12T05:04:55.781Z,25.30
2022-10-12T05:07:23.704Z,24.17
2022-10-12T05:09:51.616Z,24.97
2022-10-12T05:12:19.535Z,23.63
2022-10-12T05:14:47.411Z,24.53
2022-10-12T05:17:15.563Z,24.63
2022-10-12T05:19:43.444Z,24.60
2022-10-12T05:22:12.762Z,23.27
2022-10-12T05:24:40.676Z,22.37
2022-10-12T05:27:08.553Z,22.13
2022-10-12T05:29:36.447Z,22.37
2022-10-12T05:32:04.892Z,21.73
2022-10-12T05:34:32.946Z,22.27
2022-10-12T05:37:01.324Z,21.80
2022-10-12T05:39:30.555Z,21.87
2022-10-12T05:41:58.757Z,21.50
2022-10-12T05:44:26.628Z,22.03
2022-10-12T05:46:54.562Z,22.90
2022-10-12T05:49:22.500Z,22.07
2022-10-12T05:51:50.364Z,21.43
2022-10-12T05:54:18.271Z,21.03
2022-10-12T05:56:47.496Z,20.63
2022-10-12T05:59:15.635Z,19.50
2022-10-12T06:01:43.662Z,19.07
2022-10-12T06:04:12.918Z,21.23
2022-10-12T06:06:40.859Z,22.93
2022-10-12T06:09:09.128Z,23.23
2022-10-12T06:11:37.065Z,20.60
2022-10-12T06:14:06.524Z,20.70
2022-10-12T06:16:34.516Z,19.50
2022-10-12T06:19:02.478Z,20.63
2022-10-12T06:21:34.595Z,19.47
2022-10-12T06:24:03.042Z,19.17
2022-10-12T06:26:31.028Z,18.57
2022-10-12T06:29:00.637Z,19.77
2022-10-12T06:31:30.577Z,20.13
2022-10-12T06:33:58.468Z,19.63
2022-10-12T06:36:26.603Z,19.87
2022-10-12T06:38:54.963Z,19.37
2022-10-12T06:41:22.924Z,19.33
2022-10-12T06:43:50.815Z,19.07
2022-10-12T06:46:18.731Z,19.57
2022-10-12T06:48:48.214Z,20.20
2022-10-12T06:51:16.177Z,19.77
2022-10-12T06:53:44.344Z,19.57
2022-10-12T06:56:13.372Z,19.90
2022-10-12T06:58:41.998Z,20.43
2022-10-12T07:01:11.023Z,20.17
2022-10-12T07:03:39.000Z,18.50
2022-10-12T07:06:11.281Z,18.77
2022-10-12T07:08:41.049Z,18.47
2022-10-12T07:11:10.773Z,19.27
2022-10-12T07:13:38.763Z,19.83
2022-10-12T07:16:06.990Z,20.33
2022-10-12T07:18:35.408Z,20.20
2022-10-12T07:21:03.729Z,20.27
2022-10-12T07:23:34.656Z,20.07
2022-10-12T07:26:02.656Z,21.00
2022-10-12T07:28:30.664Z,20.80
2022-10-12T07:31:01.995Z,19.03
2022-10-12T07:33:33.258Z,19.90
2022-10-12T07:36:21.135Z,19.30
2022-10-12T07:38:50.832Z,18.63
2022-10-12T07:41:19.210Z,19.80
2022-10-12T07:43:47.125Z,19.53
2022-10-12T07:46:15.194Z,19.93
2022-10-12T07:48:47.484Z,18.37
2022-10-12T07:51:18.092Z,19.83
2022-10-12T07:53:46.060Z,17.40
2022-10-12T07:56:16.164Z,19.60
2022-10-12T07:58:44.870Z,18.40
2022-10-12T08:01:12.813Z,18.03
2022-10-12T08:03:40.833Z,18.53
2022-10-12T08:06:13.613Z,17.97
2022-10-12T08:08:41.877Z,17.80
2022-10-12T08:11:10.812Z,18.10
2022-10-12T08:13:40.899Z,17.03
2022-10-12T08:16:12.251Z,15.60
2022-10-12T08:18:40.797Z,16.17
2022-10-12T08:21:10.461Z,15.47
2022-10-12T08:23:38.657Z,16.90
2022-10-12T08:26:07.611Z,15.97
2022-10-12T08:28:36.959Z,15.70
2022-10-12T08:31:11.420Z,15.83
2022-10-12T08:33:40.018Z,15.77
2022-10-12T08:36:09.387Z,14.60
2022-10-12T08:38:39.390Z,14.27
2022-10-12T08:41:39.089Z,14.83
2022-10-12T08:44:28.264Z,14.07
2022-10-12T08:47:01.167Z,13.83
2022-10-12T08:49:32.151Z,13.00
2022-10-12T08:52:04.451Z,13.40
2022-10-12T08:54:39.742Z,13.67
2022-10-12T08:57:16.276Z,13.73
2022-10-12T08:59:44.606Z,12.57
2022-10-12T09:02:32.260Z,12.50
2022-10-12T09:05:02.864Z,11.83
2022-10-12T09:07:34.749Z,12.97
2022-10-12T09:10:16.089Z,12.93
2022-10-12T09:12:51.734Z,12.23
2022-10-12T09:15:23.289Z,12.50
2022-10-12T09:17:54.449Z,13.27
2022-10-12T09:20:24.060Z,12.30
2022-10-12T09:22:54.774Z,12.30
2022-10-12T09:25:25.443Z,12.43
2022-10-12T09:27:53.971Z,13.10
2022-10-12T09:30:22.271Z,12.77
2022-10-12T09:33:04.019Z,13.37
2022-10-12T09:35:31.960Z,13.60
2022-10-12T09:37:59.968Z,12.23
2022-10-12T09:40:30.986Z,13.33
2022-10-12T09:43:00.838Z,12.17
2022-10-12T09:45:30.947Z,12.90
2022-10-12T09:48:21.448Z,12.60
2022-10-12T09:50:53.434Z,11.83
2022-10-12T09:53:32.726Z,11.73
2022-10-12T09:56:07.774Z,12.07
2022-10-12T09:58:44.067Z,11.37
2022-10-12T10:01:21.564Z,10.93
2022-10-12T10:04:06.965Z,12.23
2022-10-12T10:06:35.202Z,12.20
2022-10-12T10:09:03.371Z,11.77
2022-10-12T10:11:32.505Z,11.23
2022-10-12T10:14:02.543Z,13.73
2022-10-12T10:16:32.163Z,11.47
2022-10-12T10:19:03.113Z,11.67
2022-10-12T10:21:34.258Z,11.73
2022-10-12T10:24:03.804Z,10.83
2022-10-12T10:26:51.985Z,11.53
2022-10-12T10:29:32.283Z,12.00
2022-10-12T10:32:24.180Z,10.57
2022-10-12T10:35:08.316Z,10.60
2022-10-12T10:37:36.845Z,10.37
2022-10-12T10:40:06.317Z,10.07
2022-10-12T10:42:35.763Z,10.90
2022-10-12T10:45:07.001Z,10.87
2022-10-12T10:47:42.931Z,10.73
2022-10-12T10:50:26.984Z,11.53
2022-10-12T10:52:58.377Z,10.50
2022-10-12T10:55:32.875Z,10.27
2022-10-12T10:58:13.872Z,10.93
2022-10-12T11:00:45.526Z,10.93
2022-10-12T11:05:58.113Z,10.43
2022-10-12T11:08:27.981Z,11.63
2022-10-12T11:11:00.608Z,10.53
2022-10-12T11:13:35.179Z,10.83
2022-10-12T11:16:09.343Z,10.67
2022-10-12T11:18:44.062Z,10.87
2022-10-12T11:21:19.355Z,10.87
2022-10-12T11:23:52.942Z,10.27
2022-10-12T11:26:27.385Z,9.97
2022-10-12T11:28:58.097Z,10.57
2022-10-12T11:31:31.357Z,10.20
2022-10-12T11:34:03.448Z,10.33
2022-10-12T11:36:35.791Z,9.90
2022-10-12T11:39:07.432Z,9.97
2022-10-12T11:42:09.566Z,10.00
2022-10-12T11:44:41.800Z,10.30
2022-10-12T11:47:17.843Z,9.93
2022-10-12T11:49:52.807Z,10.03
2022-10-12T11:52:28.533Z,10.40
2022-10-12T11:55:08.356Z,10.30
2022-10-12T11:57:39.175Z,10.17
2022-10-12T12:00:18.237Z,10.27
2022-10-12T12:02:52.096Z,10.70
2022-10-12T12:05:20.103Z,10.43
2022-10-12T12:07:51.729Z,9.60
2022-10-12T12:10:45.364Z,9.87
2022-10-12T12:13:23.086Z,10.10
2022-10-12T12:16:31.972Z,9.30
2022-10-12T12:19:32.001Z,10.30
2022-10-12T12:22:36.418Z,9.80
2022-10-12T12:25:18.021Z,9.07
2022-10-12T12:27:49.573Z,10.07
2022-10-12T12:30:38.331Z,8.90
2022-10-12T12:33:27.368Z,9.73
2022-10-12T12:35:58.036Z,9.53
2022-10-12T12:38:33.071Z,9.57
2022-10-12T12:41:08.771Z,9.50
2022-10-12T12:44:02.724Z,10.77
2022-10-12T12:47:26.441Z,9.10
2022-10-12T12:49:56.458Z,8.73
2022-10-12T12:52:29.383Z,9.93
2022-10-12T12:55:18.482Z,9.93
2022-10-12T12:58:03.035Z,8.83
2022-10-12T13:00:39.174Z,9.07
2022-10-12T13:03:34.826Z,9.63
2022-10-12T13:06:38.885Z,9.13
2022-10-12T13:09:35.632Z,9.13
2022-10-12T13:12:32.114Z,8.87
2022-10-12T13:15:25.635Z,8.40
2022-10-12T13:18:45.299Z,8.80
2022-10-12T13:21:16.181Z,8.70
2022-10-12T13:23:48.024Z,8.83
2022-10-12T13:26:22.828Z,8.80
2022-10-12T13:28:51.844Z,7.67
2022-10-12T13:31:24.851Z,9.13
2022-10-12T13:34:00.840Z,8.50
2022-10-12T13:36:31.172Z,8.90
2022-10-12T13:39:01.014Z,8.00
2022-10-12T13:41:31.313Z,7.70
2022-10-12T13:44:01.254Z,8.43
2022-10-12T13:46:42.812Z,7.97
2022-10-12T13:49:15.830Z,8.30
2022-10-12T13:51:45.582Z,7.60
2022-10-12T13:54:19.113Z,7.90
2022-10-12T13:56:50.123Z,7.57
2022-10-12T13:59:22.458Z,7.40
2022-10-12T14:01:55.788Z,8.80
2022-10-12T14:04:27.917Z,7.43
2022-10-12T14:07:04.038Z,6.50
2022-10-12T14:09:41.610Z,6.87
2022-10-12T14:12:11.317Z,6.47
2022-10-12T14:14:41.492Z,6.67
2022-10-12T14:17:15.898Z,6.07
2022-10-12T14:19:46.811Z,5.80
2022-10-12T14:22:21.529Z,6.33
2022-10-12T14:24:50.714Z,5.83
2022-10-12T14:27:24.964Z,5.57
2022-10-12T14:29:57.401Z,6.23
2022-10-12T14:32:44.176Z,5.47
2022-10-12T14:35:23.662Z,5.80
2022-10-12T14:37:53.917Z,5.77
2022-10-12T14:40:38.538Z,5.40
2022-10-12T14:43:21.055Z,5.30
2022-10-12T14:45:49.402Z,5.27
2022-10-12T14:48:22.926Z,4.67
2022-10-12T14:50:51.409Z,5.27
2022-10-12T14:53:19.344Z,5.03
2022-10-12T14:55:50.819Z,5.40
2022-10-12T14:58:21.705Z,5.53
2022-10-12T15:00:49.643Z,4.83
2022-10-12T15:03:20.163Z,4.90
2022-10-12T15:05:48.096Z,4.57
2022-10-12T15:08:15.972Z,5.00
2022-10-12T15:10:44.312Z,4.30
2022-10-12T15:13:14.056Z,4.80
2022-10-12T15:15:44.904Z,4.63
2022-10-12T15:18:12.783Z,4.63
2022-10-12T15:20:46.747Z,5.20
2022-10-12T15:23:17.250Z,4.60
2022-10-12T15:25:48.914Z,4.73
2022-10-12T15:28:17.046Z,4.73
2022-10-12T15:31:11.856Z,5.10
2022-10-12T15:33:33.075Z,4.40
2022-10-12T15:36:03.357Z,4.80
2022-10-12T15:38:31.358Z,5.23
2022-10-12T15:40:59.274Z,4.73
2022-10-12T15:43:27.500Z,4.47
2022-10-12T15:45:56.456Z,5.03
2022-10-12T15:48:24.444Z,4.57
2022-10-12T15:50:52.414Z,4.47
2022-10-12T15:53:24.783Z,5.07
2022-10-12T15:55:53.299Z,5.53
2022-10-12T15:58:21.259Z,5.13
2022-10-12T16:00:49.727Z,5.50
2022-10-12T16:03:25.548Z,5.03
2022-10-12T16:05:54.804Z,4.93
2022-10-12T16:08:24.394Z,5.17
2022-10-12T16:10:52.669Z,4.37
2022-10-12T16:13:20.632Z,4.37
2022-10-12T16:15:48.741Z,5.10
2022-10-12T16:18:17.847Z,4.57
2022-10-12T16:20:49.744Z,4.87
2022-10-12T16:23:28.756Z,4.83
2022-10-12T16:25:57.485Z,4.97
2022-10-12T16:28:26.105Z,5.20
2022-10-12T16:30:54.625Z,5.40
2022-10-12T16:33:22.653Z,5.20
2022-10-12T16:35:50.612Z,4.63
2022-10-12T16:38:20.284Z,5.00
2022-10-12T16:40:50.235Z,5.70
2022-10-12T16:43:19.433Z,5.50
2022-10-12T16:45:56.016Z,5.03
2022-10-12T16:48:23.961Z,5.87
2022-10-12T16:50:51.880Z,5.23
2022-10-12T16:53:19.763Z,5.00
2022-10-12T16:55:49.192Z,6.10
2022-10-12T16:58:17.040Z,5.40
2022-10-12T17:00:45.037Z,6.20
2022-10-12T17:03:14.023Z,5.83
2022-10-12T17:05:42.593Z,6.03
2022-10-12T17:08:14.974Z,5.13
2022-10-12T17:10:43.950Z,6.10
2022-10-12T17:13:14.392Z,6.20
2022-10-12T17:15:43.134Z,6.60
2022-10-12T17:18:11.753Z,5.67
2022-10-12T17:20:39.715Z,6.20
2022-10-12T17:23:07.683Z,5.40
2022-10-12T17:25:35.590Z,5.60
2022-10-12T17:28:03.417Z,5.63
2022-10-12T17:30:33.298Z,6.13
2022-10-12T17:33:01.206Z,6.10
2022-10-12T17:35:29.096Z,6.10
2022-10-12T17:37:56.919Z,6.67
2022-10-12T17:40:24.821Z,6.40
2022-10-12T17:42:52.682Z,7.20
2022-10-12T17:45:20.603Z,6.57
2022-10-12T17:47:50.618Z,6.60
2022-10-12T17:50:18.724Z,6.63
2022-10-12T17:52:46.705Z,6.53
2022-10-12T17:55:36.230Z,6.13
2022-10-12T17:58:03.163Z,7.00
2022-10-12T18:00:31.361Z,6.90
2022-10-12T18:03:00.832Z,6.40
2022-10-12T18:05:28.712Z,6.97
2022-10-12T18:07:56.613Z,7.23
2022-10-12T18:10:27.673Z,7.40
2022-10-12T18:12:56.589Z,6.80
2022-10-12T18:15:24.461Z,7.53
2022-10-12T18:17:52.357Z,7.53
2022-10-12T18:20:21.729Z,9.83
2022-10-12T18:22:49.705Z,9.90
2022-10-12T18:25:17.756Z,10.13
2022-10-12T18:27:46.953Z,9.90
2022-10-12T18:30:15.039Z,9.83
2022-10-12T18:32:43.051Z,9.00
2022-10-12T18:35:10.987Z,8.77
2022-10-12T18:37:41.020Z,10.37
2022-10-12T18:40:10.638Z,8.53
2022-10-12T18:42:38.521Z,8.90
2022-10-12T18:45:07.168Z,8.67
2022-10-12T18:47:36.264Z,8.83
2022-10-12T18:50:04.925Z,8.80
2022-10-12T18:52:32.868Z,8.17
2022-10-12T18:55:02.314Z,7.90
2022-10-12T18:57:32.781Z,8.47
2022-10-12T19:00:02.372Z,7.87
2022-10-12T19:02:30.285Z,8.03
2022-10-12T19:04:58.236Z,8.13
2022-10-12T19:07:26.405Z,7.97
2022-10-12T19:09:54.355Z,7.60
2022-10-12T19:12:45.653Z,7.67
2022-10-12T19:15:13.928Z,7.60
2022-10-12T19:17:41.828Z,7.27
2022-10-12T19:20:10.456Z,7.53
2022-10-12T19:22:38.375Z,8.30
2022-10-12T19:25:07.354Z,8.00
2022-10-12T19:27:35.234Z,8.63
2022-10-12T19:30:05.486Z,8.93
2022-10-12T19:32:34.804Z,10.80
2022-10-12T19:35:02.737Z,10.20
2022-10-12T19:37:30.747Z,11.07
2022-10-12T19:39:58.651Z,10.63
2022-10-12T19:42:26.588Z,10.50
2022-10-12T19:44:54.406Z,10.93
2022-10-12T19:47:23.778Z,11.33
2022-10-12T19:49:51.910Z,11.60
2022-10-12T19:52:20.176Z,10.50
2022-10-12T19:54:48.470Z,9.57
2022-10-12T19:57:16.393Z,8.53
2022-10-12T19:59:44.290Z,8.00
2022-10-12T20:02:12.583Z,7.13
2022-10-12T20:04:41.953Z,7.53
2022-10-12T20:07:09.852Z,8.53
2022-10-12T20:09:37.747Z,7.27
2022-10-12T20:12:05.633Z,8.27
2022-10-12T20:14:33.526Z,9.57
2022-10-12T20:17:01.413Z,9.23
2022-10-12T20:19:29.298Z,8.03
2022-10-12T20:21:58.525Z,8.20
2022-10-12T20:24:26.479Z,9.87
2022-10-12T20:26:54.346Z,14.30
2022-10-12T20:29:22.203Z,10.17
2022-10-12T20:31:50.103Z,9.67
2022-10-12T20:34:17.919Z,9.67
2022-10-12T20:36:48.238Z,8.67
2022-10-12T20:39:18.270Z,9.83
2022-10-12T20:41:47.010Z,9.03
2022-10-12T20:44:14.858Z,7.90
2022-10-12T20:46:55.850Z,8.93
2022-10-12T20:49:24.175Z,9.47
2022-10-12T20:51:52.320Z,9.50
2022-10-12T20:54:22.932Z,8.93
2022-10-12T20:56:52.001Z,8.77
2022-10-12T20:59:20.136Z,9.57
2022-10-12T21:01:48.505Z,8.57
2022-10-12T21:04:16.401Z,9.00
2022-10-12T21:06:44.317Z,8.60
2022-10-12T21:09:14.513Z,10.17
2022-10-12T21:11:44.534Z,9.17
2022-10-12T21:14:13.134Z,9.90
2022-10-12T21:16:41.094Z,9.90
2022-10-12T21:19:09.404Z,8.63
2022-10-12T21:21:37.296Z,10.03
2022-10-12T21:24:05.657Z,9.70
2022-10-12T21:26:34.182Z,9.80
2022-10-12T21:29:03.553Z,10.77
2022-10-12T21:31:32.798Z,10.00
2022-10-12T21:34:01.787Z,10.07
2022-10-12T21:36:31.199Z,11.07
2022-10-12T21:38:59.239Z,9.60
2022-10-12T21:41:29.110Z,9.83
2022-10-12T21:43:58.338Z,9.73
2022-10-12T21:46:29.611Z,9.37
2022-10-12T21:48:58.670Z,10.17
2022-10-12T21:51:28.380Z,10.10
2022-10-12T21:53:56.410Z,10.57
2022-10-12T21:56:26.483Z,10.37
2022-10-12T21:58:57.360Z,10.23
2022-10-12T22:01:31.567Z,10.60
2022-10-12T22:04:01.028Z,10.40
2022-10-12T22:06:30.469Z,9.77
2022-10-12T22:09:03.589Z,9.17
2022-10-12T22:11:33.156Z,9.60
2022-10-12T22:14:03.479Z,10.00
2022-10-12T22:16:33.250Z,9.23
2022-10-12T22:19:02.908Z,9.77
2022-10-12T22:21:34.716Z,9.90
2022-10-12T22:24:02.740Z,9.90
2022-10-12T22:26:30.843Z,10.27
2022-10-12T22:28:59.167Z,9.77
2022-10-12T22:31:28.028Z,10.57
2022-10-12T22:33:58.028Z,10.90
2022-10-12T22:36:26.000Z,9.80
2022-10-12T22:38:53.885Z,10.47
2022-10-12T22:41:23.678Z,10.80
2022-10-12T22:43:55.205Z,9.97
2022-10-12T22:46:24.516Z,10.57
2022-10-12T22:48:52.947Z,9.93
2022-10-12T22:51:29.994Z,9.73
2022-10-12T22:53:58.221Z,10.37
2022-10-12T22:56:26.171Z,9.97
2022-10-12T22:58:57.925Z,9.80
2022-10-12T23:01:26.943Z,10.63
2022-10-12T23:03:56.418Z,10.57
2022-10-12T23:06:26.144Z,10.30
2022-10-12T23:08:54.066Z,9.77
2022-10-12T23:11:24.193Z,10.23
2022-10-12T23:13:52.182Z,9.93
2022-10-12T23:16:22.910Z,10.43
2022-10-12T23:18:58.839Z,10.57
2022-10-12T23:21:30.149Z,10.53
2022-10-12T23:23:59.389Z,10.13
2022-10-12T23:26:28.804Z,9.83
2022-10-12T23:28:57.253Z,10.33
2022-10-12T23:31:27.634Z,10.40
2022-10-12T23:33:56.941Z,10.67
2022-10-12T23:36:24.918Z,11.10
2022-10-12T23:38:54.544Z,10.77
2022-10-12T23:41:22.978Z,11.00
2022-10-12T23:43:50.945Z,11.90
2022-10-12T23:46:18.849Z,11.83
2022-10-12T23:48:46.782Z,13.37
2022-10-12T23:51:14.896Z,13.73
2022-10-12T23:53:42.989Z,14.53
2022-10-12T23:56:12.396Z,15.30
2022-10-12T23:58:40.759Z,14.67
